sensor_id;sensor_type;location;lat;lon;timestamp;pressure;altitude;pressure_sealevel;temperature;humidity
38022;BME280;23832;43.216;27.946;2023-04-04T00:01:59;100133.03;;;11.67;100.00
38022;BME280;23832;43.216;27.946;2023-04-04T00:04:02;100128.63;;;11.46;100.00
38022;BME280;23832;43.216;27.946;2023-04-04T00:06:05;100107.78;;;11.58;100.00
38022;BME280;23832;43.216;27.946;2023-04-04T00:08:06;100115.50;;;11.81;100.00
38022;BME280;23832;43.216;27.946;2023-04-04T00:10:10;100103.16;;;11.60;100.00
38022;BME280;23832;43.216;27.946;2023-04-04T00:12:12;100103.38;;;11.65;100.00
38022;BME280;23832;43.216;27.946;2023-04-04T00:14:14;100098.47;;;11.62;100.00
38022;BME280;23832;43.216;27.946;2023-04-04T00:16:16;100084.56;;;11.47;100.00
38022;BME280;23832;43.216;27.946;2023-04-04T00:18:21;100091.03;;;11.44;100.00
38022;BME280;23832;43.216;27.946;2023-04-04T00:20:24;100089.50;;;11.56;100.00
38022;BME280;23832;43.216;27.946;2023-04-04T00:22:27;100087.53;;;11.65;100.00
38022;BME280;23832;43.216;27.946;2023-04-04T00:24:28;100088.34;;;11.65;100.00
38022;BME280;23832;43.216;27.946;2023-04-04T00:26:30;100084.75;;;11.73;100.00
38022;BME280;23832;43.216;27.946;2023-04-04T00:28:32;100085.03;;;11.85;100.00
38022;BME280;23832;43.216;27.946;2023-04-04T00:30:34;100072.88;;;11.90;100.00
38022;BME280;23832;43.216;27.946;2023-04-04T00:32:36;100079.66;;;12.00;100.00
38022;BME280;23832;43.216;27.946;2023-04-04T00:34:38;100061.66;;;11.82;100.00
38022;BME280;23832;43.216;27.946;2023-04-04T00:36:42;100066.50;;;11.78;100.00
38022;BME280;23832;43.216;27.946;2023-04-04T00:38:44;100062.31;;;11.90;100.00
38022;BME280;23832;43.216;27.946;2023-04-04T00:40:46;100049.69;;;11.86;100.00
38022;BME280;23832;43.216;27.946;2023-04-04T00:42:49;100049.72;;;11.92;100.00
38022;BME280;23832;43.216;27.946;2023-04-04T00:44:51;100039.78;;;11.94;100.00
38022;BME280;23832;43.216;27.946;2023-04-04T00:46:54;100036.16;;;12.02;100.00
38022;BME280;23832;43.216;27.946;2023-04-04T00:48:57;100023.94;;;11.94;100.00
38022;BME280;23832;43.216;27.946;2023-04-04T00:50:59;100027.59;;;11.93;100.00
38022;BME280;23832;43.216;27.946;2023-04-04T00:53:03;100021.47;;;11.86;100.00
38022;BME280;23832;43.216;27.946;2023-04-04T00:55:07;100019.91;;;11.99;100.00
38022;BME280;23832;43.216;27.946;2023-04-04T00:57:09;100010.53;;;11.96;100.00
38022;BME280;23832;43.216;27.946;2023-04-04T00:59:12;100008.78;;;11.75;100.00
38022;BME280;23832;43.216;27.946;2023-04-04T01:01:15;100014.84;;;11.69;100.00
38022;BME280;23832;43.216;27.946;2023-04-04T01:03:17;100006.69;;;11.64;100.00
38022;BME280;23832;43.216;27.946;2023-04-04T01:05:19;100026.66;;;11.73;100.00
38022;BME280;23832;43.216;27.946;2023-04-04T01:07:21;100004.03;;;11.64;100.00
38022;BME280;23832;43.216;27.946;2023-04-04T01:09:27;99998.59;;;11.72;100.00
38022;BME280;23832;43.216;27.946;2023-04-04T01:11:31;99983.66;;;11.86;100.00
38022;BME280;23832;43.216;27.946;2023-04-04T01:13:33;99978.16;;;11.81;100.00
38022;BME280;23832;43.216;27.946;2023-04-04T01:15:35;99985.28;;;11.80;100.00
38022;BME280;23832;43.216;27.946;2023-04-04T01:17:38;99975.16;;;11.90;100.00
38022;BME280;23832;43.216;27.946;2023-04-04T01:19:42;99984.72;;;11.57;100.00
38022;BME280;23832;43.216;27.946;2023-04-04T01:21:45;100027.19;;;11.62;100.00
38022;BME280;23832;43.216;27.946;2023-04-04T01:23:50;99971.34;;;11.65;100.00
38022;BME280;23832;43.216;27.946;2023-04-04T01:26:04;99973.78;;;11.66;100.00
38022;BME280;23832;43.216;27.946;2023-04-04T01:28:07;99973.78;;;11.60;100.00
38022;BME280;23832;43.216;27.946;2023-04-04T01:30:10;99977.56;;;11.85;100.00
38022;BME280;23832;43.216;27.946;2023-04-04T01:32:15;99979.53;;;11.77;100.00
38022;BME280;23832;43.216;27.946;2023-04-04T01:34:21;99961.00;;;11.63;100.00
38022;BME280;23832;43.216;27.946;2023-04-04T01:36:26;99967.03;;;11.57;100.00
38022;BME280;23832;43.216;27.946;2023-04-04T01:38:34;99972.59;;;11.69;100.00
38022;BME280;23832;43.216;27.946;2023-04-04T01:40:39;99956.78;;;11.76;100.00
38022;BME280;23832;43.216;27.946;2023-04-04T01:42:43;99956.84;;;11.82;100.00
38022;BME280;23832;43.216;27.946;2023-04-04T01:44:46;99945.31;;;11.97;100.00
38022;BME280;23832;43.216;27.946;2023-04-04T01:46:51;99935.38;;;11.99;100.00
38022;BME280;23832;43.216;27.946;2023-04-04T01:48:53;99936.28;;;11.78;100.00
38022;BME280;23832;43.216;27.946;2023-04-04T01:50:55;99928.91;;;11.60;100.00
38022;BME280;23832;43.216;27.946;2023-04-04T01:52:57;99912.41;;;11.51;100.00
38022;BME280;23832;43.216;27.946;2023-04-04T01:55:00;99916.69;;;11.52;100.00
38022;BME280;23832;43.216;27.946;2023-04-04T01:57:02;99888.13;;;11.69;100.00
38022;BME280;23832;43.216;27.946;2023-04-04T01:59:06;99892.38;;;11.70;100.00
38022;BME280;23832;43.216;27.946;2023-04-04T02:01:08;99880.00;;;11.77;100.00
38022;BME280;23832;43.216;27.946;2023-04-04T02:03:10;99888.50;;;11.66;100.00
38022;BME280;23832;43.216;27.946;2023-04-04T02:05:12;99879.13;;;11.57;100.00
38022;BME280;23832;43.216;27.946;2023-04-04T02:07:15;99868.34;;;11.58;100.00
38022;BME280;23832;43.216;27.946;2023-04-04T02:09:17;99861.53;;;11.77;100.00
38022;BME280;23832;43.216;27.946;2023-04-04T02:11:19;99869.63;;;11.69;100.00
38022;BME280;23832;43.216;27.946;2023-04-04T02:13:22;99838.59;;;11.84;100.00
38022;BME280;23832;43.216;27.946;2023-04-04T02:15:25;99837.59;;;11.85;100.00
38022;BME280;23832;43.216;27.946;2023-04-04T02:17:27;99834.50;;;11.75;100.00
38022;BME280;23832;43.216;27.946;2023-04-04T02:19:29;99817.81;;;11.68;100.00
38022;BME280;23832;43.216;27.946;2023-04-04T02:21:31;99824.06;;;11.47;100.00
38022;BME280;23832;43.216;27.946;2023-04-04T02:23:33;99823.69;;;11.50;100.00
38022;BME280;23832;43.216;27.946;2023-04-04T02:25:35;99828.34;;;11.55;100.00
38022;BME280;23832;43.216;27.946;2023-04-04T02:27:37;99827.56;;;11.61;100.00
38022;BME280;23832;43.216;27.946;2023-04-04T02:29:39;99833.31;;;11.84;100.00
38022;BME280;23832;43.216;27.946;2023-04-04T02:31:44;99830.84;;;11.70;100.00
38022;BME280;23832;43.216;27.946;2023-04-04T02:33:47;99819.91;;;11.86;100.00
38022;BME280;23832;43.216;27.946;2023-04-04T02:35:49;99830.28;;;11.87;100.00
38022;BME280;23832;43.216;27.946;2023-04-04T02:37:51;99817.13;;;12.14;100.00
38022;BME280;23832;43.216;27.946;2023-04-04T02:39:53;99818.53;;;12.30;100.00
38022;BME280;23832;43.216;27.946;2023-04-04T02:41:55;99816.50;;;11.99;100.00
38022;BME280;23832;43.216;27.946;2023-04-04T02:43:57;99804.91;;;12.06;100.00
38022;BME280;23832;43.216;27.946;2023-04-04T02:45:58;99815.25;;;11.94;100.00
38022;BME280;23832;43.216;27.946;2023-04-04T02:48:03;99815.88;;;12.10;100.00
38022;BME280;23832;43.216;27.946;2023-04-04T02:50:07;99813.25;;;12.10;100.00
38022;BME280;23832;43.216;27.946;2023-04-04T02:52:10;99796.38;;;12.17;100.00
38022;BME280;23832;43.216;27.946;2023-04-04T02:54:12;99793.94;;;12.36;100.00
38022;BME280;23832;43.216;27.946;2023-04-04T02:56:13;99792.50;;;12.20;100.00
38022;BME280;23832;43.216;27.946;2023-04-04T02:58:15;99785.41;;;12.14;100.00
38022;BME280;23832;43.216;27.946;2023-04-04T03:00:17;99796.97;;;12.13;100.00
38022;BME280;23832;43.216;27.946;2023-04-04T03:02:19;99800.84;;;12.17;100.00
38022;BME280;23832;43.216;27.946;2023-04-04T03:04:22;99800.84;;;12.30;100.00
38022;BME280;23832;43.216;27.946;2023-04-04T03:06:25;99783.13;;;12.31;100.00
38022;BME280;23832;43.216;27.946;2023-04-04T03:08:27;99785.41;;;12.27;100.00
38022;BME280;23832;43.216;27.946;2023-04-04T03:10:29;99780.72;;;12.36;100.00
38022;BME280;23832;43.216;27.946;2023-04-04T03:12:31;99790.88;;;12.39;100.00
38022;BME280;23832;43.216;27.946;2023-04-04T03:14:33;99773.16;;;12.46;100.00
38022;BME280;23832;43.216;27.946;2023-04-04T03:16:35;99789.66;;;12.35;100.00
38022;BME280;23832;43.216;27.946;2023-04-04T03:18:37;99781.53;;;12.43;100.00
38022;BME280;23832;43.216;27.946;2023-04-04T03:20:41;99772.38;;;12.39;100.00
38022;BME280;23832;43.216;27.946;2023-04-04T03:22:44;99771.56;;;12.38;100.00
38022;BME280;23832;43.216;27.946;2023-04-04T03:24:46;99772.34;;;12.52;100.00
38022;BME280;23832;43.216;27.946;2023-04-04T03:26:48;99773.16;;;12.39;100.00
38022;BME280;23832;43.216;27.946;2023-04-04T03:28:50;99754.03;;;12.64;100.00
38022;BME280;23832;43.216;27.946;2023-04-04T03:30:52;99765.34;;;12.84;100.00
38022;BME280;23832;43.216;27.946;2023-04-04T03:32:56;99776.56;;;12.73;100.00
38022;BME280;23832;43.216;27.946;2023-04-04T03:34:59;99769.66;;;12.78;100.00
38022;BME280;23832;43.216;27.946;2023-04-04T03:37:02;99774.19;;;12.52;100.00
38022;BME280;23832;43.216;27.946;2023-04-04T03:39:04;99784.34;;;12.61;100.00
38022;BME280;23832;43.216;27.946;2023-04-04T03:41:06;99781.63;;;12.81;100.00
38022;BME280;23832;43.216;27.946;2023-04-04T03:43:08;99774.34;;;12.76;100.00
38022;BME280;23832;43.216;27.946;2023-04-04T03:45:10;99788.56;;;12.82;100.00
38022;BME280;23832;43.216;27.946;2023-04-04T03:47:13;99788.38;;;12.77;100.00
38022;BME280;23832;43.216;27.946;2023-04-04T03:49:16;99788.53;;;12.95;100.00
38022;BME280;23832;43.216;27.946;2023-04-04T03:51:21;99799.50;;;12.92;100.00
38022;BME280;23832;43.216;27.946;2023-04-04T03:53:25;99748.72;;;12.64;100.00
38022;BME280;23832;43.216;27.946;2023-04-04T03:55:27;99801.31;;;13.05;100.00
38022;BME280;23832;43.216;27.946;2023-04-04T03:57:30;99793.47;;;12.78;100.00
38022;BME280;23832;43.216;27.946;2023-04-04T03:59:33;99792.22;;;12.81;100.00
38022;BME280;23832;43.216;27.946;2023-04-04T04:01:35;99779.22;;;12.73;100.00
38022;BME280;23832;43.216;27.946;2023-04-04T04:03:40;99798.38;;;12.62;100.00
38022;BME280;23832;43.216;27.946;2023-04-04T04:05:42;99802.59;;;12.83;100.00
38022;BME280;23832;43.216;27.946;2023-04-04T04:07:44;99800.34;;;12.86;100.00
38022;BME280;23832;43.216;27.946;2023-04-04T04:09:48;99782.81;;;12.92;100.00
38022;BME280;23832;43.216;27.946;2023-04-04T04:11:49;99762.44;;;13.05;100.00
38022;BME280;23832;43.216;27.946;2023-04-04T04:13:51;99767.16;;;12.97;100.00
38022;BME280;23832;43.216;27.946;2023-04-04T04:15:53;99772.25;;;12.92;100.00
38022;BME280;23832;43.216;27.946;2023-04-04T04:17:55;99747.59;;;13.04;100.00
38022;BME280;23832;43.216;27.946;2023-04-04T04:19:57;99741.19;;;13.19;100.00
38022;BME280;23832;43.216;27.946;2023-04-04T04:21:59;99735.47;;;13.28;100.00
38022;BME280;23832;43.216;27.946;2023-04-04T04:24:01;99741.66;;;13.02;100.00
38022;BME280;23832;43.216;27.946;2023-04-04T04:26:04;99751.50;;;12.89;100.00
38022;BME280;23832;43.216;27.946;2023-04-04T04:28:07;99736.47;;;12.83;100.00
38022;BME280;23832;43.216;27.946;2023-04-04T04:30:09;99734.34;;;13.04;100.00
38022;BME280;23832;43.216;27.946;2023-04-04T04:32:14;99728.69;;;12.94;100.00
38022;BME280;23832;43.216;27.946;2023-04-04T04:34:18;99710.47;;;12.73;100.00
38022;BME280;23832;43.216;27.946;2023-04-04T04:36:20;99691.94;;;12.73;100.00
38022;BME280;23832;43.216;27.946;2023-04-04T04:38:22;99693.78;;;12.66;100.00
38022;BME280;23832;43.216;27.946;2023-04-04T04:40:24;99675.50;;;12.58;100.00
38022;BME280;23832;43.216;27.946;2023-04-04T04:42:28;99675.47;;;12.71;100.00
38022;BME280;23832;43.216;27.946;2023-04-04T04:44:30;99657.09;;;12.89;100.00
38022;BME280;23832;43.216;27.946;2023-04-04T04:46:34;99641.00;;;12.91;100.00
38022;BME280;23832;43.216;27.946;2023-04-04T04:48:38;99657.47;;;12.93;100.00
38022;BME280;23832;43.216;27.946;2023-04-04T04:50:41;99667.44;;;12.97;100.00
38022;BME280;23832;43.216;27.946;2023-04-04T04:52:43;99674.19;;;12.87;100.00
38022;BME280;23832;43.216;27.946;2023-04-04T04:54:48;99687.88;;;13.15;100.00
38022;BME280;23832;43.216;27.946;2023-04-04T04:56:50;99689.53;;;13.10;100.00
38022;BME280;23832;43.216;27.946;2023-04-04T04:58:54;99705.16;;;12.79;100.00
38022;BME280;23832;43.216;27.946;2023-04-04T05:00:56;99722.06;;;13.17;100.00
38022;BME280;23832;43.216;27.946;2023-04-04T05:02:58;99725.16;;;13.14;100.00
38022;BME280;23832;43.216;27.946;2023-04-04T05:05:01;99719.22;;;13.12;100.00
38022;BME280;23832;43.216;27.946;2023-04-04T05:07:03;99764.78;;;12.69;100.00
38022;BME280;23832;43.216;27.946;2023-04-04T05:09:07;99738.88;;;12.91;100.00
38022;BME280;23832;43.216;27.946;2023-04-04T05:11:09;99756.44;;;12.72;100.00
38022;BME280;23832;43.216;27.946;2023-04-04T05:13:11;99766.41;;;12.70;100.00
38022;BME280;23832;43.216;27.946;2023-04-04T05:15:15;99775.09;;;12.97;100.00
38022;BME280;23832;43.216;27.946;2023-04-04T05:17:17;99771.69;;;12.76;100.00
38022;BME280;23832;43.216;27.946;2023-04-04T05:19:19;99793.59;;;13.03;100.00
38022;BME280;23832;43.216;27.946;2023-04-04T05:21:21;99804.03;;;12.85;100.00
38022;BME280;23832;43.216;27.946;2023-04-04T05:23:23;99811.34;;;12.83;100.00
38022;BME280;23832;43.216;27.946;2023-04-04T05:25:25;99826.00;;;12.86;100.00
38022;BME280;23832;43.216;27.946;2023-04-04T05:27:28;99813.88;;;13.16;100.00
38022;BME280;23832;43.216;27.946;2023-04-04T05:29:30;99830.78;;;13.15;100.00
38022;BME280;23832;43.216;27.946;2023-04-04T05:31:34;99816.59;;;12.96;100.00
38022;BME280;23832;43.216;27.946;2023-04-04T05:33:36;99822.13;;;12.82;100.00
38022;BME280;23832;43.216;27.946;2023-04-04T05:35:38;99833.56;;;12.69;100.00
38022;BME280;23832;43.216;27.946;2023-04-04T05:37:41;99821.53;;;12.66;100.00
38022;BME280;23832;43.216;27.946;2023-04-04T05:39:43;99822.59;;;12.59;100.00
38022;BME280;23832;43.216;27.946;2023-04-04T05:41:45;99824.81;;;12.68;100.00
38022;BME280;23832;43.216;27.946;2023-04-04T05:43:48;99839.06;;;12.61;100.00
38022;BME280;23832;43.216;27.946;2023-04-04T05:45:50;99831.69;;;12.76;100.00
38022;BME280;23832;43.216;27.946;2023-04-04T05:47:53;99846.56;;;12.77;100.00
38022;BME280;23832;43.216;27.946;2023-04-04T05:49:55;99831.69;;;12.89;100.00
38022;BME280;23832;43.216;27.946;2023-04-04T05:51:57;99835.94;;;12.90;100.00
38022;BME280;23832;43.216;27.946;2023-04-04T05:53:59;99833.66;;;13.07;100.00
38022;BME280;23832;43.216;27.946;2023-04-04T05:56:01;99831.63;;;13.09;100.00
38022;BME280;23832;43.216;27.946;2023-04-04T05:58:03;99836.91;;;13.09;100.00
38022;BME280;23832;43.216;27.946;2023-04-04T06:00:05;99839.34;;;13.11;100.00
38022;BME280;23832;43.216;27.946;2023-04-04T06:02:08;99845.88;;;13.01;100.00
38022;BME280;23832;43.216;27.946;2023-04-04T06:04:12;99848.75;;;13.00;100.00
38022;BME280;23832;43.216;27.946;2023-04-04T06:06:14;99853.81;;;13.01;100.00
38022;BME280;23832;43.216;27.946;2023-04-04T06:08:16;99836.53;;;13.05;100.00
38022;BME280;23832;43.216;27.946;2023-04-04T06:10:17;99827.78;;;12.98;100.00
38022;BME280;23832;43.216;27.946;2023-04-04T06:12:20;99819.84;;;13.05;100.00
38022;BME280;23832;43.216;27.946;2023-04-04T06:14:21;99826.38;;;12.89;100.00
38022;BME280;23832;43.216;27.946;2023-04-04T06:16:23;99821.03;;;13.02;100.00
38022;BME280;23832;43.216;27.946;2023-04-04T06:18:25;99814.13;;;13.08;100.00
38022;BME280;23832;43.216;27.946;2023-04-04T06:20:31;99819.41;;;13.08;100.00
38022;BME280;23832;43.216;27.946;2023-04-04T06:22:34;99831.00;;;13.14;100.00
38022;BME280;23832;43.216;27.946;2023-04-04T06:24:36;99838.59;;;12.97;100.00
38022;BME280;23832;43.216;27.946;2023-04-04T06:26:38;99842.41;;;13.14;100.00
38022;BME280;23832;43.216;27.946;2023-04-04T06:28:45;99842.56;;;13.32;100.00
38022;BME280;23832;43.216;27.946;2023-04-04T06:30:48;99834.25;;;13.22;100.00
38022;BME280;23832;43.216;27.946;2023-04-04T06:32:49;99837.31;;;13.13;100.00
38022;BME280;23832;43.216;27.946;2023-04-04T06:34:53;99822.22;;;13.26;100.00
38022;BME280;23832;43.216;27.946;2023-04-04T06:36:57;99816.09;;;13.32;100.00
38022;BME280;23832;43.216;27.946;2023-04-04T06:39:03;99834.19;;;13.42;100.00
38022;BME280;23832;43.216;27.946;2023-04-04T06:41:06;99799.44;;;13.25;100.00
38022;BME280;23832;43.216;27.946;2023-04-04T06:43:08;99783.75;;;13.24;100.00
38022;BME280;23832;43.216;27.946;2023-04-04T06:45:10;99780.09;;;13.25;100.00
38022;BME280;23832;43.216;27.946;2023-04-04T06:47:11;99781.84;;;13.38;100.00
38022;BME280;23832;43.216;27.946;2023-04-04T06:49:13;99766.19;;;13.36;100.00
38022;BME280;23832;43.216;27.946;2023-04-04T06:51:15;99759.81;;;13.50;100.00
38022;BME280;23832;43.216;27.946;2023-04-04T06:53:19;99737.91;;;13.61;100.00
38022;BME280;23832;43.216;27.946;2023-04-04T06:55:22;99735.16;;;13.75;100.00
38022;BME280;23832;43.216;27.946;2023-04-04T06:57:25;99712.84;;;14.14;100.00
38022;BME280;23832;43.216;27.946;2023-04-04T06:59:27;99708.91;;;13.98;100.00
38022;BME280;23832;43.216;27.946;2023-04-04T07:01:31;99701.94;;;14.04;100.00
38022;BME280;23832;43.216;27.946;2023-04-04T07:03:33;99695.56;;;13.86;100.00
38022;BME280;23832;43.216;27.946;2023-04-04T07:05:36;99706.03;;;13.75;100.00
38022;BME280;23832;43.216;27.946;2023-04-04T07:07:40;99706.34;;;13.60;100.00
38022;BME280;23832;43.216;27.946;2023-04-04T07:09:43;99698.47;;;13.78;100.00
38022;BME280;23832;43.216;27.946;2023-04-04T07:11:45;99703.13;;;13.83;100.00
38022;BME280;23832;43.216;27.946;2023-04-04T07:13:47;99725.00;;;13.72;100.00
38022;BME280;23832;43.216;27.946;2023-04-04T07:15:49;99741.88;;;13.77;100.00
38022;BME280;23832;43.216;27.946;2023-04-04T07:17:51;99725.66;;;13.67;100.00
38022;BME280;23832;43.216;27.946;2023-04-04T07:19:52;99744.16;;;14.24;100.00
38022;BME280;23832;43.216;27.946;2023-04-04T07:21:54;99734.91;;;14.08;100.00
38022;BME280;23832;43.216;27.946;2023-04-04T07:23:56;99742.22;;;14.12;100.00
38022;BME280;23832;43.216;27.946;2023-04-04T07:26:00;99735.72;;;13.83;100.00
38022;BME280;23832;43.216;27.946;2023-04-04T07:28:02;99734.28;;;13.87;100.00
38022;BME280;23832;43.216;27.946;2023-04-04T07:30:04;99735.31;;;14.11;100.00
38022;BME280;23832;43.216;27.946;2023-04-04T07:32:07;99738.50;;;14.20;100.00
38022;BME280;23832;43.216;27.946;2023-04-04T07:34:09;99714.66;;;14.38;100.00
38022;BME280;23832;43.216;27.946;2023-04-04T07:36:11;99716.28;;;14.39;100.00
38022;BME280;23832;43.216;27.946;2023-04-04T07:38:13;99712.69;;;14.52;100.00
38022;BME280;23832;43.216;27.946;2023-04-04T07:40:15;99712.69;;;14.52;100.00
38022;BME280;23832;43.216;27.946;2023-04-04T07:42:20;99698.38;;;14.71;100.00
38022;BME280;23832;43.216;27.946;2023-04-04T07:44:23;99697.84;;;14.44;100.00
38022;BME280;23832;43.216;27.946;2023-04-04T07:46:26;99691.25;;;14.54;100.00
38022;BME280;23832;43.216;27.946;2023-04-04T07:48:28;99693.66;;;14.55;100.00
38022;BME280;23832;43.216;27.946;2023-04-04T07:50:30;99712.69;;;14.70;100.00
38022;BME280;23832;43.216;27.946;2023-04-04T07:52:32;99733.53;;;14.48;100.00
38022;BME280;23832;43.216;27.946;2023-04-04T07:54:35;99724.06;;;14.34;100.00
38022;BME280;23832;43.216;27.946;2023-04-04T07:56:37;99726.91;;;14.14;100.00
38022;BME280;23832;43.216;27.946;2023-04-04T07:58:41;99721.91;;;14.25;100.00
38022;BME280;23832;43.216;27.946;2023-04-04T08:00:42;99712.19;;;14.37;100.00
38022;BME280;23832;43.216;27.946;2023-04-04T08:02:44;99700.72;;;14.43;100.00
38022;BME280;23832;43.216;27.946;2023-04-04T08:04:46;99694.59;;;14.42;100.00
38022;BME280;23832;43.216;27.946;2023-04-04T08:06:48;99690.31;;;14.48;100.00
38022;BME280;23832;43.216;27.946;2023-04-04T08:08:50;99673.13;;;14.51;100.00
38022;BME280;23832;43.216;27.946;2023-04-04T08:10:52;99677.97;;;15.20;100.00
38022;BME280;23832;43.216;27.946;2023-04-04T08:12:54;99663.75;;;15.26;100.00
38022;BME280;23832;43.216;27.946;2023-04-04T08:14:57;99662.13;;;14.84;100.00
38022;BME280;23832;43.216;27.946;2023-04-04T08:17:01;99658.47;;;14.66;100.00
38022;BME280;23832;43.216;27.946;2023-04-04T08:19:03;99665.91;;;14.58;100.00
38022;BME280;23832;43.216;27.946;2023-04-04T08:21:04;99682.16;;;14.80;100.00
38022;BME280;23832;43.216;27.946;2023-04-04T08:23:06;99682.19;;;14.61;100.00
38022;BME280;23832;43.216;27.946;2023-04-04T08:25:08;99684.47;;;15.06;100.00
38022;BME280;23832;43.216;27.946;2023-04-04T08:27:11;99685.00;;;15.26;100.00
38022;BME280;23832;43.216;27.946;2023-04-04T08:29:14;99687.16;;;15.48;100.00
38022;BME280;23832;43.216;27.946;2023-04-04T08:31:18;99679.75;;;15.92;100.00
38022;BME280;23832;43.216;27.946;2023-04-04T08:33:20;99664.88;;;16.42;100.00
38022;BME280;23832;43.216;27.946;2023-04-04T08:35:22;99667.31;;;16.96;100.00
38022;BME280;23832;43.216;27.946;2023-04-04T08:37:24;99664.72;;;17.29;100.00
38022;BME280;23832;43.216;27.946;2023-04-04T08:39:26;99672.72;;;17.46;100.00
38022;BME280;23832;43.216;27.946;2023-04-04T08:41:28;99665.41;;;17.25;100.00
38022;BME280;23832;43.216;27.946;2023-04-04T08:43:34;99659.84;;;17.89;100.00
38022;BME280;23832;43.216;27.946;2023-04-04T08:45:38;99658.69;;;18.23;100.00
38022;BME280;23832;43.216;27.946;2023-04-04T08:47:44;99671.78;;;17.86;100.00
38022;BME280;23832;43.216;27.946;2023-04-04T08:49:47;99670.47;;;18.44;100.00
38022;BME280;23832;43.216;27.946;2023-04-04T08:51:49;99674.94;;;18.60;100.00
38022;BME280;23832;43.216;27.946;2023-04-04T08:53:53;99662.34;;;18.78;100.00
38022;BME280;23832;43.216;27.946;2023-04-04T08:55:56;99677.28;;;19.27;100.00
38022;BME280;23832;43.216;27.946;2023-04-04T08:58:00;99671.97;;;19.92;91.90
38022;BME280;23832;43.216;27.946;2023-04-04T09:00:02;99672.72;;;20.29;90.16
38022;BME280;23832;43.216;27.946;2023-04-04T09:02:13;99668.47;;;20.38;84.08
38022;BME280;23832;43.216;27.946;2023-04-04T09:04:17;99688.22;;;19.53;88.32
38022;BME280;23832;43.216;27.946;2023-04-04T09:06:20;99692.69;;;18.93;97.44
38022;BME280;23832;43.216;27.946;2023-04-04T09:08:23;99697.56;;;18.96;100.00
38022;BME280;23832;43.216;27.946;2023-04-04T09:10:25;99713.88;;;19.00;100.00
38022;BME280;23832;43.216;27.946;2023-04-04T09:12:29;99701.41;;;19.33;99.26
38022;BME280;23832;43.216;27.946;2023-04-04T09:14:32;99712.13;;;19.11;97.64
38022;BME280;23832;43.216;27.946;2023-04-04T09:16:34;99712.88;;;18.84;100.00
38022;BME280;23832;43.216;27.946;2023-04-04T09:18:36;99708.50;;;18.73;100.00
38022;BME280;23832;43.216;27.946;2023-04-04T09:20:40;99703.53;;;18.04;100.00
38022;BME280;23832;43.216;27.946;2023-04-04T09:22:43;99705.38;;;18.04;100.00
38022;BME280;23832;43.216;27.946;2023-04-04T09:24:46;99715.09;;;17.93;100.00
38022;BME280;23832;43.216;27.946;2023-04-04T09:26:51;99714.50;;;18.25;100.00
38022;BME280;23832;43.216;27.946;2023-04-04T09:28:53;99706.69;;;18.40;100.00
38022;BME280;23832;43.216;27.946;2023-04-04T09:30:55;99722.53;;;17.91;100.00
38022;BME280;23832;43.216;27.946;2023-04-04T09:32:59;99727.06;;;17.74;100.00
38022;BME280;23832;43.216;27.946;2023-04-04T09:35:01;99734.00;;;17.75;100.00
38022;BME280;23832;43.216;27.946;2023-04-04T09:37:05;99735.06;;;17.45;100.00
38022;BME280;23832;43.216;27.946;2023-04-04T09:39:07;99731.06;;;17.02;100.00
38022;BME280;23832;43.216;27.946;2023-04-04T09:41:09;99723.50;;;16.59;100.00
38022;BME280;23832;43.216;27.946;2023-04-04T09:43:11;99724.66;;;16.75;100.00
38022;BME280;23832;43.216;27.946;2023-04-04T09:45:13;99714.59;;;16.77;100.00
38022;BME280;23832;43.216;27.946;2023-04-04T09:47:22;99717.13;;;16.60;100.00
38022;BME280;23832;43.216;27.946;2023-04-04T09:49:24;99715.84;;;16.86;100.00
38022;BME280;23832;43.216;27.946;2023-04-04T09:51:32;99717.19;;;17.29;100.00
38022;BME280;23832;43.216;27.946;2023-04-04T09:53:36;99717.44;;;17.27;100.00
38022;BME280;23832;43.216;27.946;2023-04-04T09:55:41;99725.22;;;16.77;100.00
38022;BME280;23832;43.216;27.946;2023-04-04T09:57:43;99719.66;;;16.67;100.00
38022;BME280;23832;43.216;27.946;2023-04-04T09:59:47;99729.19;;;16.51;100.00
38022;BME280;23832;43.216;27.946;2023-04-04T10:01:49;99727.19;;;16.82;100.00
38022;BME280;23832;43.216;27.946;2023-04-04T10:03:52;99718.19;;;17.11;100.00
38022;BME280;23832;43.216;27.946;2023-04-04T10:05:55;99720.50;;;17.36;100.00
38022;BME280;23832;43.216;27.946;2023-04-04T10:07:59;99717.16;;;17.57;100.00
38022;BME280;23832;43.216;27.946;2023-04-04T10:10:04;99719.25;;;17.55;100.00
38022;BME280;23832;43.216;27.946;2023-04-04T10:12:09;99716.19;;;18.14;100.00
38022;BME280;23832;43.216;27.946;2023-04-04T10:14:11;99718.94;;;18.36;100.00
38022;BME280;23832;43.216;27.946;2023-04-04T10:16:13;99714.41;;;18.20;100.00
38022;BME280;23832;43.216;27.946;2023-04-04T10:18:16;99700.84;;;18.21;100.00
38022;BME280;23832;43.216;27.946;2023-04-04T10:20:19;99716.16;;;18.31;100.00
38022;BME280;23832;43.216;27.946;2023-04-04T10:22:23;99708.88;;;18.43;100.00
38022;BME280;23832;43.216;27.946;2023-04-04T10:24:25;99709.84;;;18.76;100.00
38022;BME280;23832;43.216;27.946;2023-04-04T10:26:29;99700.22;;;18.96;100.00
38022;BME280;23832;43.216;27.946;2023-04-04T10:28:31;99707.06;;;18.65;100.00
38022;BME280;23832;43.216;27.946;2023-04-04T10:30:35;99701.75;;;18.10;100.00
38022;BME280;23832;43.216;27.946;2023-04-04T10:32:42;99702.72;;;18.04;100.00